createdAt,value
2019-06-26T00:01:07.746Z,26.47
2019-06-26T00:02:07.779Z,26.41
2019-06-26T00:04:00.958Z,26.46
2019-06-26T00:05:01.001Z,26.41
2019-06-26T00:06:53.993Z,26.44
2019-06-26T00:07:54.011Z,26.41
2019-06-26T00:09:47.175Z,26.38
2019-06-26T00:10:47.213Z,26.34
2019-06-26T00:12:40.421Z,26.29
2019-06-26T00:13:40.414Z,26.31
2019-06-26T00:15:33.807Z,26.23
2019-06-26T00:16:33.838Z,26.24
2019-06-26T00:18:26.827Z,26.32
2019-06-26T00:19:26.846Z,26.19
2019-06-26T00:21:41.983Z,26.23
2019-06-26T00:22:42.009Z,26.21
2019-06-26T00:24:35.106Z,26.23
2019-06-26T00:25:35.143Z,26.17
2019-06-26T00:27:28.121Z,26.17
2019-06-26T00:28:28.155Z,26.19
2019-06-26T00:30:32.211Z,26.16
2019-06-26T00:31:32.245Z,26.23
2019-06-26T00:33:25.331Z,26.17
2019-06-26T00:34:25.363Z,26.16
2019-06-26T00:36:18.359Z,26.08
2019-06-26T00:37:18.377Z,26.12
2019-06-26T00:39:11.469Z,26.09
2019-06-26T00:40:11.501Z,26.11
2019-06-26T00:42:26.702Z,25.98
2019-06-26T00:43:41.585Z,25.96
2019-06-26T00:45:19.714Z,25.91
2019-06-26T00:46:19.748Z,26.01
2019-06-26T00:48:12.883Z,25.97
2019-06-26T00:49:12.920Z,25.98
2019-06-26T00:51:17.053Z,25.97
2019-06-26T00:52:17.070Z,25.89
2019-06-26T00:54:32.307Z,25.90
2019-06-26T00:55:32.246Z,25.96
2019-06-26T00:57:36.290Z,25.91
2019-06-26T00:58:36.322Z,25.97
2019-06-26T01:00:29.442Z,25.94
2019-06-26T01:01:29.474Z,25.94
2019-06-26T01:03:33.559Z,25.91
2019-06-26T01:04:33.596Z,25.85
2019-06-26T01:06:37.701Z,25.90
2019-06-26T01:07:37.712Z,25.76
2019-06-26T01:09:41.776Z,25.85
2019-06-26T01:10:41.809Z,25.76
2019-06-26T01:12:34.973Z,25.86
2019-06-26T01:13:35.008Z,25.82
2019-06-26T01:15:28.147Z,25.76
2019-06-26T01:16:28.156Z,25.81
2019-06-26T01:18:32.245Z,25.78
2019-06-26T01:20:56.328Z,25.79
2019-06-26T01:21:56.358Z,25.74
2019-06-26T01:24:00.445Z,25.78
2019-06-26T01:25:00.476Z,25.76
2019-06-26T01:26:53.545Z,25.75
2019-06-26T01:27:53.538Z,25.67
2019-06-26T01:29:57.645Z,25.71
2019-06-26T01:30:57.658Z,25.74
2019-06-26T01:33:01.748Z,25.66
2019-06-26T01:34:01.783Z,25.66
2019-06-26T01:36:05.867Z,25.67
2019-06-26T01:37:05.900Z,25.69
2019-06-26T01:39:09.985Z,25.67
2019-06-26T01:40:10.016Z,25.63
2019-06-26T01:42:14.230Z,25.63
2019-06-26T01:43:14.138Z,25.59
2019-06-26T01:45:18.216Z,25.66
2019-06-26T01:46:18.248Z,25.59
2019-06-26T01:48:22.334Z,25.61
2019-06-26T01:49:22.365Z,25.61
2019-06-26T01:51:26.453Z,25.67
2019-06-26T01:52:26.483Z,25.56
2019-06-26T01:54:31.028Z,25.64
2019-06-26T01:55:31.065Z,25.67
2019-06-26T01:56:31.101Z,25.60
2019-06-26T01:57:31.139Z,25.60
2019-06-26T01:58:31.178Z,25.57
2019-06-26T01:59:31.219Z,25.57
2019-06-26T02:00:31.270Z,25.59
2019-06-26T02:01:31.296Z,25.61
2019-06-26T02:02:31.337Z,25.64
2019-06-26T02:03:31.374Z,25.57
2019-06-26T02:04:31.416Z,25.60
2019-06-26T02:05:31.452Z,25.60
2019-06-26T02:06:31.490Z,25.51
2019-06-26T02:07:31.530Z,25.51
2019-06-26T02:08:31.577Z,25.57
2019-06-26T02:09:31.614Z,25.54
2019-06-26T02:10:31.654Z,25.57
2019-06-26T02:11:31.688Z,25.59
2019-06-26T02:12:31.728Z,25.49
2019-06-26T02:13:31.788Z,25.51
2019-06-26T02:14:31.997Z,25.56
2019-06-26T02:15:31.844Z,25.48
2019-06-26T02:16:31.882Z,25.54
2019-06-26T02:17:31.951Z,25.57
2019-06-26T02:18:31.968Z,25.44
2019-06-26T02:19:32.001Z,25.46
2019-06-26T02:20:32.038Z,25.51
2019-06-26T02:21:32.077Z,25.46
2019-06-26T02:22:32.117Z,25.57
2019-06-26T02:23:32.155Z,25.45
2019-06-26T02:24:32.194Z,25.44
2019-06-26T02:25:32.234Z,25.49
2019-06-26T02:26:32.273Z,25.48
2019-06-26T02:27:32.330Z,25.45
2019-06-26T02:28:32.350Z,25.46
2019-06-26T02:29:32.392Z,25.48
2019-06-26T02:30:32.428Z,25.49
2019-06-26T02:31:32.470Z,25.48
2019-06-26T02:32:32.508Z,25.48
2019-06-26T02:33:32.546Z,25.51
2019-06-26T02:34:32.583Z,25.45
2019-06-26T02:35:32.624Z,25.51
2019-06-26T02:36:32.663Z,25.46
2019-06-26T02:37:32.701Z,25.56
2019-06-26T02:38:32.742Z,25.46
2019-06-26T02:39:32.796Z,25.53
2019-06-26T02:40:32.819Z,25.57
2019-06-26T02:41:32.858Z,25.57
2019-06-26T02:42:32.896Z,25.56
2019-06-26T02:43:32.936Z,25.54
2019-06-26T02:44:51.526Z,25.54
2019-06-26T02:45:33.016Z,25.51
2019-06-26T02:46:33.052Z,25.56
2019-06-26T02:47:33.093Z,25.51
2019-06-26T02:48:33.131Z,25.51
2019-06-26T02:49:33.170Z,25.56
2019-06-26T02:50:33.208Z,25.56
2019-06-26T02:51:33.247Z,25.53
2019-06-26T02:52:33.286Z,25.53
2019-06-26T02:53:33.325Z,25.51
2019-06-26T02:54:33.370Z,25.51
2019-06-26T02:55:33.403Z,25.49
2019-06-26T02:56:33.449Z,25.49
2019-06-26T02:57:33.482Z,25.46
2019-06-26T02:58:33.522Z,25.48
2019-06-26T02:59:33.560Z,25.51
2019-06-26T03:00:33.598Z,25.53
2019-06-26T03:01:33.637Z,25.51
2019-06-26T03:02:33.681Z,25.51
2019-06-26T03:03:33.722Z,25.49
2019-06-26T03:04:33.754Z,25.49
2019-06-26T03:05:33.793Z,25.44
2019-06-26T03:06:33.834Z,25.42
2019-06-26T03:07:33.872Z,25.45
2019-06-26T03:08:33.910Z,25.46
2019-06-26T03:09:33.952Z,25.39
2019-06-26T03:10:33.988Z,25.46
2019-06-26T03:11:34.027Z,25.42
2019-06-26T03:12:34.070Z,25.42
2019-06-26T03:13:34.105Z,25.44
2019-06-26T03:14:34.199Z,25.39
2019-06-26T03:15:34.183Z,25.39
2019-06-26T03:16:34.221Z,25.44
2019-06-26T03:17:34.260Z,25.38
2019-06-26T03:18:34.300Z,25.35
2019-06-26T03:19:34.338Z,25.36
2019-06-26T03:20:34.380Z,25.38
2019-06-26T03:21:34.415Z,25.38
2019-06-26T03:22:34.456Z,25.41
2019-06-26T03:23:34.494Z,25.39
2019-06-26T03:24:34.534Z,25.39
2019-06-26T03:25:34.573Z,25.45
2019-06-26T03:26:34.611Z,25.34
2019-06-26T03:27:34.650Z,25.41
2019-06-26T03:28:34.704Z,25.42
2019-06-26T03:29:34.728Z,25.36
2019-06-26T03:30:34.778Z,25.35
2019-06-26T03:31:34.809Z,25.38
2019-06-26T03:32:34.845Z,25.39
2019-06-26T03:33:34.888Z,25.36
2019-06-26T03:34:34.929Z,25.41
2019-06-26T03:35:34.966Z,25.39
2019-06-26T03:36:35.000Z,25.36
2019-06-26T03:37:35.056Z,25.41
2019-06-26T03:38:35.082Z,25.41
2019-06-26T03:39:35.116Z,25.30
2019-06-26T03:40:35.156Z,25.42
2019-06-26T03:41:35.205Z,25.34
2019-06-26T03:42:35.234Z,25.36
2019-06-26T03:43:35.724Z,25.31
2019-06-26T03:44:35.314Z,25.34
2019-06-26T03:45:35.350Z,25.30
2019-06-26T03:46:35.398Z,25.38
2019-06-26T03:47:35.442Z,25.36
2019-06-26T03:48:35.467Z,25.36
2019-06-26T03:49:35.508Z,25.38
2019-06-26T03:50:35.551Z,25.36
2019-06-26T03:51:35.587Z,25.31
2019-06-26T03:52:35.622Z,25.31
2019-06-26T03:53:35.662Z,25.31
2019-06-26T03:54:35.705Z,25.31
2019-06-26T03:55:35.740Z,25.36
2019-06-26T03:56:35.777Z,25.39
2019-06-26T03:57:35.822Z,25.30
2019-06-26T03:58:35.857Z,25.44
2019-06-26T03:59:35.902Z,25.27
2019-06-26T04:00:35.978Z,25.30
2019-06-26T04:01:35.974Z,25.36
2019-06-26T04:02:36.015Z,25.36
2019-06-26T04:03:36.050Z,25.27
2019-06-26T04:04:36.089Z,25.39
2019-06-26T04:05:36.133Z,25.39
2019-06-26T04:06:36.200Z,25.30
2019-06-26T04:07:36.205Z,25.31
2019-06-26T04:08:36.247Z,25.45
2019-06-26T04:09:36.282Z,25.36
2019-06-26T04:10:36.322Z,25.34
2019-06-26T04:11:36.361Z,25.41
2019-06-26T04:12:36.496Z,25.35
2019-06-26T04:13:36.438Z,25.42
2019-06-26T04:14:36.477Z,25.36
2019-06-26T04:15:42.200Z,25.38
2019-06-26T04:16:36.554Z,25.42
2019-06-26T04:17:36.651Z,25.44
2019-06-26T04:18:36.633Z,25.48
2019-06-26T04:19:36.672Z,25.53
2019-06-26T04:20:36.710Z,25.48
2019-06-26T04:21:36.749Z,25.46
2019-06-26T04:22:36.791Z,25.44
2019-06-26T04:23:36.827Z,25.49
2019-06-26T04:24:36.866Z,25.54
2019-06-26T04:25:38.285Z,25.46
2019-06-26T04:26:36.991Z,25.53
2019-06-26T04:27:36.987Z,25.49
2019-06-26T04:28:37.022Z,25.49
2019-06-26T04:29:37.061Z,25.56
2019-06-26T04:30:37.102Z,25.51
2019-06-26T04:31:37.143Z,25.51
2019-06-26T04:32:37.178Z,25.54
2019-06-26T04:33:37.217Z,25.56
2019-06-26T04:34:37.257Z,25.56
2019-06-26T04:35:37.320Z,25.54
2019-06-26T04:36:37.333Z,25.59
2019-06-26T04:37:37.388Z,25.59
2019-06-26T04:38:37.411Z,25.60
2019-06-26T04:39:37.450Z,25.59
2019-06-26T04:40:37.489Z,25.54
2019-06-26T04:41:37.528Z,25.59
2019-06-26T04:42:37.567Z,25.53
2019-06-26T04:43:37.607Z,25.59
2019-06-26T04:44:37.646Z,25.57
2019-06-26T04:45:37.689Z,25.46
2019-06-26T04:46:37.724Z,25.53
2019-06-26T04:47:37.794Z,25.57
2019-06-26T04:48:37.800Z,25.56
2019-06-26T04:49:37.841Z,25.56
2019-06-26T04:50:37.879Z,25.54
2019-06-26T04:51:37.923Z,25.51
2019-06-26T04:52:37.958Z,25.54
2019-06-26T04:53:37.995Z,25.53
2019-06-26T04:54:38.036Z,25.54
2019-06-26T04:55:38.074Z,25.56
2019-06-26T04:56:38.111Z,25.60
2019-06-26T04:57:38.152Z,25.57
2019-06-26T04:58:38.190Z,25.56
2019-06-26T04:59:38.252Z,25.54
2019-06-26T05:00:38.269Z,25.57
2019-06-26T05:01:38.307Z,25.64
2019-06-26T05:02:38.349Z,25.64
2019-06-26T05:03:38.393Z,25.57
2019-06-26T05:04:38.426Z,25.59
2019-06-26T05:05:40.023Z,25.60
2019-06-26T05:06:38.505Z,25.60
2019-06-26T05:07:38.551Z,25.59
2019-06-26T05:08:38.579Z,25.61
2019-06-26T05:09:38.620Z,25.64
2019-06-26T05:10:38.663Z,25.69
2019-06-26T05:11:38.698Z,25.60
2019-06-26T05:12:38.735Z,25.66
2019-06-26T05:13:38.776Z,25.71
2019-06-26T05:14:38.813Z,25.74
2019-06-26T05:15:38.853Z,25.75
2019-06-26T05:16:38.892Z,25.74
2019-06-26T05:17:38.933Z,25.72
2019-06-26T05:18:38.971Z,25.76
2019-06-26T05:19:39.011Z,25.67
2019-06-26T05:20:39.047Z,25.75
2019-06-26T05:21:39.088Z,25.78
2019-06-26T05:22:39.128Z,25.79
2019-06-26T05:23:39.165Z,25.86
2019-06-26T05:24:39.204Z,25.78
2019-06-26T05:25:39.243Z,25.90
2019-06-26T05:26:39.283Z,25.82
2019-06-26T05:27:39.323Z,25.94
2019-06-26T05:28:39.361Z,25.90
2019-06-26T05:29:39.400Z,25.93
2019-06-26T05:30:39.549Z,25.83
2019-06-26T05:31:39.477Z,25.96
2019-06-26T05:32:39.518Z,26.04
2019-06-26T05:33:39.564Z,26.03
2019-06-26T05:34:39.594Z,26.03
2019-06-26T05:35:39.654Z,25.97
2019-06-26T05:36:39.672Z,25.97
2019-06-26T05:37:39.711Z,26.04
2019-06-26T05:38:39.763Z,26.09
2019-06-26T05:39:39.790Z,26.20
2019-06-26T05:40:39.830Z,26.17
2019-06-26T05:41:39.868Z,26.16
2019-06-26T05:42:39.907Z,26.17
2019-06-26T05:43:39.946Z,26.23
2019-06-26T05:44:39.997Z,26.23
2019-06-26T05:45:40.027Z,26.17
2019-06-26T05:46:40.243Z,26.13
2019-06-26T05:47:40.104Z,26.19
2019-06-26T05:48:40.142Z,26.21
2019-06-26T05:49:40.183Z,26.29
2019-06-26T05:50:40.225Z,26.21
2019-06-26T05:51:40.260Z,26.34
2019-06-26T05:52:42.722Z,26.27
2019-06-26T05:53:40.342Z,26.36
2019-06-26T05:54:40.378Z,26.39
2019-06-26T05:55:40.419Z,26.36
2019-06-26T05:56:40.458Z,26.41
2019-06-26T05:57:41.983Z,26.42
2019-06-26T05:58:40.537Z,26.56
2019-06-26T05:59:40.576Z,26.47
2019-06-26T06:00:40.660Z,26.60
2019-06-26T06:01:40.652Z,26.54
2019-06-26T06:02:40.692Z,26.61
2019-06-26T06:03:40.737Z,26.59
2019-06-26T06:04:40.772Z,26.64
2019-06-26T06:05:40.823Z,26.66
2019-06-26T06:06:42.309Z,26.71
2019-06-26T06:07:40.890Z,26.71
2019-06-26T06:08:40.929Z,26.72
2019-06-26T06:09:40.967Z,26.68
2019-06-26T06:10:41.008Z,26.81
2019-06-26T06:11:41.047Z,26.81
2019-06-26T06:12:41.093Z,26.83
2019-06-26T06:13:41.125Z,26.81
2019-06-26T06:14:41.165Z,26.90
2019-06-26T06:15:41.205Z,26.86
2019-06-26T06:16:47.512Z,26.88
2019-06-26T06:17:41.397Z,26.94
2019-06-26T06:18:41.336Z,26.94
2019-06-26T06:19:41.363Z,26.96
2019-06-26T06:20:41.404Z,27.03
2019-06-26T06:21:41.442Z,26.98
2019-06-26T06:22:41.483Z,27.09
2019-06-26T06:23:41.522Z,27.05
2019-06-26T06:24:41.561Z,27.11
2019-06-26T06:25:41.603Z,27.11
2019-06-26T06:26:41.641Z,27.21
2019-06-26T06:27:41.680Z,27.24
2019-06-26T06:28:41.723Z,27.21
2019-06-26T06:29:41.758Z,27.30
2019-06-26T06:30:41.798Z,27.28
2019-06-26T06:31:41.839Z,27.34
2019-06-26T06:32:41.877Z,27.42
2019-06-26T06:33:41.925Z,27.39
2019-06-26T06:34:41.960Z,27.38
2019-06-26T06:35:41.997Z,27.38
2019-06-26T06:36:42.037Z,27.43
2019-06-26T06:37:42.076Z,27.50
2019-06-26T06:38:42.118Z,27.58
2019-06-26T06:39:42.163Z,27.52
2019-06-26T06:40:42.198Z,27.58
2019-06-26T06:41:43.460Z,27.65
2019-06-26T06:42:42.278Z,27.71
2019-06-26T06:43:42.315Z,27.66
2019-06-26T06:44:42.359Z,27.71
2019-06-26T06:45:42.397Z,27.76
2019-06-26T06:46:42.463Z,27.74
2019-06-26T06:47:42.478Z,27.84
2019-06-26T06:48:42.518Z,27.77
2019-06-26T06:49:42.554Z,27.84
2019-06-26T06:50:42.594Z,27.86
2019-06-26T06:51:42.646Z,27.95
2019-06-26T06:52:42.678Z,27.87
2019-06-26T06:53:42.719Z,27.98
2019-06-26T06:54:42.780Z,28.03
2019-06-26T06:55:42.795Z,28.05
2019-06-26T06:56:42.835Z,28.05
2019-06-26T06:57:42.876Z,28.11
2019-06-26T06:58:42.942Z,28.13
2019-06-26T06:59:42.963Z,28.23
2019-06-26T07:00:43.029Z,28.11
2019-06-26T07:01:43.035Z,28.23
2019-06-26T07:02:43.082Z,28.23
2019-06-26T07:03:43.114Z,28.27
2019-06-26T07:04:43.158Z,28.25
2019-06-26T07:05:43.195Z,28.36
2019-06-26T07:06:43.235Z,28.36
2019-06-26T07:07:43.292Z,28.39
2019-06-26T07:08:43.316Z,28.38
2019-06-26T07:09:43.358Z,28.52
2019-06-26T07:10:43.399Z,28.57
2019-06-26T07:11:43.437Z,28.67
2019-06-26T07:12:43.476Z,28.70
2019-06-26T07:13:43.521Z,28.72
2019-06-26T07:14:43.557Z,28.69
2019-06-26T07:15:43.619Z,28.72
2019-06-26T07:16:43.660Z,28.74
2019-06-26T07:17:43.684Z,28.80
2019-06-26T07:18:43.721Z,28.83
2019-06-26T07:19:43.766Z,28.82
2019-06-26T07:20:44.845Z,28.74
2019-06-26T07:21:43.841Z,28.85
2019-06-26T07:22:43.892Z,28.91
2019-06-26T07:23:43.923Z,29.00
2019-06-26T07:24:43.962Z,28.95
2019-06-26T07:25:44.010Z,29.05
2019-06-26T07:26:44.043Z,29.05
2019-06-26T07:27:44.140Z,29.07
2019-06-26T07:28:44.123Z,29.10
2019-06-26T07:29:44.165Z,29.23
2019-06-26T07:30:44.216Z,29.17
2019-06-26T07:31:44.252Z,29.20
2019-06-26T07:32:44.286Z,29.26
2019-06-26T07:33:44.327Z,29.35
2019-06-26T07:34:44.369Z,29.32
2019-06-26T07:35:44.411Z,29.33
2019-06-26T07:36:44.450Z,29.32
2019-06-26T07:37:44.489Z,29.42
2019-06-26T07:38:44.534Z,29.51
2019-06-26T07:39:44.576Z,29.47
2019-06-26T07:40:44.617Z,29.57
2019-06-26T07:41:44.652Z,29.60
2019-06-26T07:42:44.698Z,29.71
2019-06-26T07:43:44.738Z,29.76
2019-06-26T07:44:44.777Z,29.78
2019-06-26T07:45:44.817Z,29.84
2019-06-26T07:46:44.857Z,29.81
2019-06-26T07:47:44.898Z,29.86
2019-06-26T07:48:44.947Z,29.97
2019-06-26T07:49:44.986Z,29.92
2019-06-26T07:50:45.037Z,30.00
2019-06-26T07:51:45.065Z,29.97
2019-06-26T07:52:45.115Z,30.08
2019-06-26T07:53:45.145Z,30.10
2019-06-26T07:54:45.186Z,30.16
2019-06-26T07:55:45.231Z,30.22
2019-06-26T07:56:45.267Z,30.23
2019-06-26T07:57:45.309Z,30.30
2019-06-26T07:58:45.358Z,30.29
2019-06-26T07:59:45.471Z,30.37
2019-06-26T08:00:45.474Z,30.51
2019-06-26T08:01:45.477Z,30.48
2019-06-26T08:02:45.518Z,30.53
2019-06-26T08:03:45.556Z,30.48
2019-06-26T08:04:45.602Z,30.51
2019-06-26T08:05:45.641Z,30.59
2019-06-26T08:06:45.683Z,30.61
2019-06-26T08:07:45.724Z,30.68
2019-06-26T08:08:45.780Z,30.68
2019-06-26T08:09:45.805Z,30.72
2019-06-26T08:10:45.865Z,30.75
2019-06-26T08:11:45.892Z,30.82
2019-06-26T08:12:45.929Z,30.81
2019-06-26T08:13:45.973Z,30.85
2019-06-26T08:14:46.036Z,30.94
2019-06-26T08:15:46.120Z,31.03
2019-06-26T08:16:46.103Z,30.97
2019-06-26T08:18:00.048Z,31.09
2019-06-26T08:18:46.181Z,31.19
2019-06-26T08:19:46.249Z,31.09
2019-06-26T08:20:55.391Z,31.20
2019-06-26T08:21:46.839Z,31.31
2019-06-26T08:22:46.345Z,31.38
2019-06-26T08:23:46.391Z,31.37
2019-06-26T08:24:46.436Z,31.41
2019-06-26T08:25:46.483Z,31.47
2019-06-26T08:26:46.520Z,31.56
2019-06-26T08:27:46.560Z,31.67
2019-06-26T08:28:46.597Z,31.65
2019-06-26T08:29:46.639Z,31.69
2019-06-26T08:30:46.683Z,31.67
2019-06-26T08:31:46.723Z,31.69
2019-06-26T08:32:46.765Z,31.76
2019-06-26T08:33:46.808Z,31.76
2019-06-26T08:34:46.856Z,31.91
2019-06-26T08:35:46.948Z,31.82
2019-06-26T08:36:46.936Z,31.85
2019-06-26T08:37:46.976Z,31.99
2019-06-26T08:38:47.018Z,31.97
2019-06-26T08:39:47.073Z,31.97
2019-06-26T08:40:47.106Z,32.03
2019-06-26T08:41:47.144Z,31.99
2019-06-26T08:42:47.225Z,31.99
2019-06-26T08:43:47.229Z,31.97
2019-06-26T08:44:47.272Z,32.03
2019-06-26T08:45:47.313Z,32.12
2019-06-26T08:46:47.356Z,32.16
2019-06-26T08:47:47.404Z,32.13
2019-06-26T08:48:51.574Z,32.27
2019-06-26T08:49:47.486Z,32.22
2019-06-26T08:50:47.525Z,32.28
2019-06-26T08:51:47.599Z,32.29
2019-06-26T08:52:47.610Z,32.32
2019-06-26T08:53:47.653Z,32.40
2019-06-26T08:54:47.695Z,32.39
2019-06-26T08:55:47.741Z,32.56
2019-06-26T08:56:47.786Z,32.58
2019-06-26T08:57:47.823Z,32.61
2019-06-26T08:58:47.867Z,32.72
2019-06-26T08:59:47.917Z,32.76
2019-06-26T09:00:47.952Z,32.78
2019-06-26T09:01:47.993Z,32.73
2019-06-26T09:02:48.038Z,32.84
2019-06-26T09:03:48.084Z,32.90
2019-06-26T09:04:48.121Z,32.96
2019-06-26T09:05:48.823Z,33.03
2019-06-26T09:06:48.217Z,33.14
2019-06-26T09:07:48.257Z,33.14
2019-06-26T09:08:48.294Z,33.17
2019-06-26T09:09:48.336Z,33.26
2019-06-26T09:10:48.381Z,33.28
2019-06-26T09:11:48.422Z,33.31
2019-06-26T09:12:48.466Z,33.44
2019-06-26T09:13:48.510Z,33.41
2019-06-26T09:14:48.552Z,33.43
2019-06-26T09:15:49.915Z,33.45
2019-06-26T09:16:48.638Z,33.47
2019-06-26T09:17:48.682Z,33.40
2019-06-26T09:18:48.724Z,33.52
2019-06-26T09:19:48.772Z,33.47
2019-06-26T09:20:48.811Z,33.50
2019-06-26T09:21:48.854Z,33.50
2019-06-26T09:22:48.900Z,33.55
2019-06-26T09:23:48.953Z,33.55
2019-06-26T09:24:48.984Z,33.63
2019-06-26T09:25:49.028Z,33.70
2019-06-26T09:26:49.072Z,33.78
2019-06-26T09:27:49.116Z,33.75
2019-06-26T09:28:49.200Z,33.82
2019-06-26T09:29:49.205Z,33.87
2019-06-26T09:30:49.555Z,33.87
2019-06-26T09:31:49.287Z,33.86
2019-06-26T09:32:49.331Z,33.84
2019-06-26T09:33:49.374Z,33.93
2019-06-26T09:34:49.423Z,33.96
2019-06-26T09:35:49.462Z,33.96
2019-06-26T09:36:49.504Z,34.08
2019-06-26T09:37:49.570Z,34.12
2019-06-26T09:38:49.594Z,34.14
2019-06-26T09:39:49.637Z,34.11
2019-06-26T09:40:49.680Z,34.15
2019-06-26T09:41:49.723Z,34.26
2019-06-26T09:42:49.775Z,34.26
2019-06-26T09:43:49.812Z,34.33
2019-06-26T09:44:49.869Z,34.30
2019-06-26T09:45:49.898Z,34.43
2019-06-26T09:46:49.949Z,34.38
2019-06-26T09:47:50.015Z,34.45
2019-06-26T09:48:53.090Z,34.42
2019-06-26T09:49:50.074Z,34.46
2019-06-26T09:50:50.122Z,34.53
2019-06-26T09:51:50.161Z,34.50
2019-06-26T09:52:50.205Z,34.65
2019-06-26T09:53:50.249Z,34.58
2019-06-26T09:54:50.296Z,34.65
2019-06-26T09:55:50.339Z,34.80
2019-06-26T09:56:50.381Z,34.75
2019-06-26T09:57:50.425Z,34.71
2019-06-26T09:58:50.524Z,34.67
2019-06-26T09:59:50.518Z,34.65
2019-06-26T10:00:50.558Z,34.67
2019-06-26T10:01:50.601Z,34.73
2019-06-26T10:02:50.684Z,34.69
2019-06-26T10:03:50.690Z,34.69
2019-06-26T10:04:50.865Z,34.73
2019-06-26T10:05:50.778Z,34.75
2019-06-26T10:06:50.855Z,34.69
2019-06-26T10:07:50.867Z,34.72
2019-06-26T10:08:54.149Z,34.69
2019-06-26T10:09:50.955Z,34.72
2019-06-26T10:10:50.998Z,34.72
2019-06-26T10:11:51.044Z,34.72
2019-06-26T10:12:51.098Z,34.80
2019-06-26T10:13:51.131Z,34.84
2019-06-26T10:14:51.174Z,34.93
2019-06-26T10:15:51.230Z,34.90
2019-06-26T10:16:51.263Z,34.95
2019-06-26T10:17:51.308Z,34.91
2019-06-26T10:19:05.641Z,34.98
2019-06-26T10:19:54.022Z,35.13
2019-06-26T10:20:51.443Z,35.18
2019-06-26T10:21:51.493Z,35.22
2019-06-26T10:22:51.560Z,35.31
2019-06-26T10:23:51.575Z,35.39
2019-06-26T10:24:51.619Z,35.44
2019-06-26T10:25:51.673Z,35.44
2019-06-26T10:26:51.708Z,35.50
2019-06-26T10:27:51.752Z,35.49
2019-06-26T10:28:51.812Z,35.54
2019-06-26T10:29:51.856Z,35.56
2019-06-26T10:30:51.895Z,35.66
2019-06-26T10:31:51.930Z,35.59
2019-06-26T10:32:51.973Z,35.71
2019-06-26T10:33:52.018Z,35.69
2019-06-26T10:34:52.112Z,35.74
2019-06-26T10:35:52.109Z,35.83
2019-06-26T10:36:52.158Z,35.84
2019-06-26T10:37:52.197Z,35.80
2019-06-26T10:38:52.242Z,35.80
2019-06-26T10:39:52.286Z,35.89
2019-06-26T10:40:52.336Z,35.87
2019-06-26T10:41:54.901Z,35.89
2019-06-26T10:42:52.434Z,36.00
2019-06-26T10:43:52.533Z,35.96
2019-06-26T10:44:52.523Z,35.96
2019-06-26T10:45:52.567Z,36.02
2019-06-26T10:46:52.618Z,36.03
2019-06-26T10:47:52.646Z,36.15
2019-06-26T10:48:52.692Z,36.05
2019-06-26T10:49:52.734Z,35.96
2019-06-26T10:50:58.251Z,35.96
2019-06-26T10:51:52.828Z,36.08
2019-06-26T10:52:52.871Z,35.99
2019-06-26T10:53:52.915Z,35.96
2019-06-26T10:54:52.965Z,35.96
2019-06-26T10:55:53.008Z,36.06
2019-06-26T10:56:53.050Z,36.06
2019-06-26T10:57:53.095Z,36.11
2019-06-26T10:58:53.156Z,36.19
2019-06-26T10:59:55.688Z,36.11
2019-06-26T11:00:53.232Z,36.22
2019-06-26T11:01:53.275Z,36.16
2019-06-26T11:02:53.322Z,36.18
2019-06-26T11:03:53.365Z,36.16
2019-06-26T11:04:53.410Z,36.25
2019-06-26T11:05:53.467Z,36.21
2019-06-26T11:06:53.499Z,36.19
2019-06-26T11:07:53.545Z,36.33
2019-06-26T11:08:53.606Z,36.34
2019-06-26T11:09:53.638Z,36.31
2019-06-26T11:10:53.682Z,36.37
2019-06-26T11:11:53.726Z,36.46
2019-06-26T11:12:53.774Z,36.43
2019-06-26T11:13:53.816Z,36.43
2019-06-26T11:14:53.863Z,36.41
2019-06-26T11:15:53.907Z,36.41
2019-06-26T11:16:53.950Z,36.44
2019-06-26T11:17:53.998Z,36.44
2019-06-26T11:18:54.042Z,36.38
2019-06-26T11:19:55.529Z,36.53
2019-06-26T11:20:54.131Z,36.60
2019-06-26T11:21:54.182Z,36.60
2019-06-26T11:22:54.226Z,36.69
2019-06-26T11:23:54.268Z,36.71
2019-06-26T11:24:54.312Z,36.74
2019-06-26T11:25:54.365Z,36.75
2019-06-26T11:26:54.404Z,36.77
2019-06-26T11:27:54.452Z,36.78
2019-06-26T11:28:54.554Z,36.77
2019-06-26T11:29:54.543Z,36.79
2019-06-26T11:30:54.585Z,36.84
2019-06-26T11:31:54.632Z,36.90
2019-06-26T11:32:54.680Z,36.91
2019-06-26T11:33:54.722Z,36.94
2019-06-26T11:34:54.768Z,36.84
2019-06-26T11:35:54.813Z,36.90
2019-06-26T11:37:03.898Z,36.93
2019-06-26T11:37:54.905Z,36.90
2019-06-26T11:38:54.949Z,36.93
2019-06-26T11:39:55.048Z,36.90
2019-06-26T11:40:55.123Z,36.96
2019-06-26T11:41:55.099Z,36.96
2019-06-26T11:42:55.133Z,36.94
2019-06-26T11:43:55.184Z,36.90
2019-06-26T11:44:55.222Z,36.84
2019-06-26T11:45:55.269Z,36.84
2019-06-26T11:46:55.321Z,36.87
2019-06-26T11:47:55.359Z,36.83
2019-06-26T11:48:55.408Z,36.78
2019-06-26T11:49:59.940Z,36.77
2019-06-26T11:50:55.498Z,36.75
2019-06-26T11:51:55.542Z,36.71
2019-06-26T11:52:55.602Z,36.84
2019-06-26T11:53:58.222Z,36.82
2019-06-26T11:55:02.622Z,36.78
2019-06-26T11:55:55.727Z,36.91
2019-06-26T11:56:55.780Z,36.93
2019-06-26T11:57:55.814Z,36.94
2019-06-26T11:58:55.862Z,36.91
2019-06-26T11:59:55.908Z,36.89
2019-06-26T12:00:55.984Z,36.99
2019-06-26T12:01:56.002Z,37.08
2019-06-26T12:02:56.042Z,37.13
2019-06-26T12:03:56.100Z,37.05
2019-06-26T12:04:56.148Z,37.13
2019-06-26T12:06:11.935Z,37.16
2019-06-26T12:06:56.226Z,37.23
2019-06-26T12:07:56.272Z,37.23
2019-06-26T12:08:56.320Z,37.24
2019-06-26T12:09:56.433Z,37.25
2019-06-26T12:10:56.409Z,37.25
2019-06-26T12:11:56.480Z,37.28
2019-06-26T12:12:56.512Z,37.28
2019-06-26T12:13:56.548Z,37.27
2019-06-26T12:14:56.607Z,37.24
2019-06-26T12:15:56.637Z,37.21
2019-06-26T12:16:56.683Z,37.23
2019-06-26T12:17:56.731Z,37.30
2019-06-26T12:18:56.775Z,37.30
2019-06-26T12:19:56.826Z,37.31
2019-06-26T12:20:56.872Z,37.38
2019-06-26T12:21:56.913Z,37.42
2019-06-26T12:22:56.959Z,37.58
2019-06-26T12:23:57.004Z,37.60
2019-06-26T12:24:57.050Z,37.65
2019-06-26T12:25:57.096Z,37.65
2019-06-26T12:26:57.159Z,37.69
2019-06-26T12:27:57.188Z,37.75
2019-06-26T12:28:57.237Z,37.77
2019-06-26T12:29:57.280Z,37.85
2019-06-26T12:30:57.325Z,37.84
2019-06-26T12:31:57.415Z,37.80
2019-06-26T12:33:03.386Z,37.80
2019-06-26T12:33:57.465Z,37.84
2019-06-26T12:34:57.512Z,37.87
2019-06-26T12:35:57.557Z,37.78
2019-06-26T12:36:57.603Z,37.77
2019-06-26T12:37:57.647Z,37.70
2019-06-26T12:38:57.694Z,37.70
2019-06-26T12:39:57.740Z,37.62
2019-06-26T12:40:57.866Z,37.59
2019-06-26T12:41:57.831Z,37.59
2019-06-26T12:42:57.880Z,37.58
2019-06-26T12:43:57.923Z,37.54
2019-06-26T12:44:57.987Z,37.50
2019-06-26T12:45:58.016Z,37.59
2019-06-26T12:46:58.062Z,37.50
2019-06-26T12:47:58.110Z,37.56
2019-06-26T12:48:58.164Z,37.63
2019-06-26T12:49:58.201Z,37.69
2019-06-26T12:50:58.259Z,37.69
2019-06-26T12:51:58.325Z,37.66
2019-06-26T12:52:58.338Z,37.82
2019-06-26T12:53:58.665Z,37.82
2019-06-26T12:54:58.431Z,37.81
2019-06-26T12:55:58.476Z,37.80
2019-06-26T12:56:58.522Z,37.84
2019-06-26T12:58:12.522Z,37.85
2019-06-26T12:59:00.000Z,37.81
2019-06-26T12:59:58.661Z,37.81
2019-06-26T13:00:58.707Z,37.82
2019-06-26T13:01:58.753Z,37.85
2019-06-26T13:02:58.800Z,37.84
2019-06-26T13:03:58.854Z,37.85
2019-06-26T13:04:58.911Z,37.82
2019-06-26T13:05:58.938Z,37.81
2019-06-26T13:06:59.209Z,37.81
2019-06-26T13:07:59.031Z,37.88
2019-06-26T13:08:59.081Z,37.91
2019-06-26T13:09:59.122Z,37.96
2019-06-26T13:10:59.169Z,37.81
2019-06-26T13:11:59.230Z,37.82
2019-06-26T13:12:59.260Z,37.77
2019-06-26T13:14:03.096Z,37.77
2019-06-26T13:14:59.357Z,37.69
2019-06-26T13:15:59.415Z,37.68
2019-06-26T13:16:59.446Z,37.68
2019-06-26T13:18:01.482Z,37.68
2019-06-26T13:18:59.540Z,37.59
2019-06-26T13:19:59.599Z,37.50
2019-06-26T13:20:59.674Z,37.58
2019-06-26T13:21:59.691Z,37.59
2019-06-26T13:22:59.739Z,37.58
2019-06-26T13:23:59.768Z,37.54
2019-06-26T13:24:59.815Z,37.40
2019-06-26T13:25:59.864Z,37.46
2019-06-26T13:26:59.910Z,37.46
2019-06-26T13:27:59.953Z,37.45
2019-06-26T13:28:59.999Z,37.45
2019-06-26T13:30:00.046Z,37.47
2019-06-26T13:31:00.160Z,37.49
2019-06-26T13:32:00.391Z,37.50